createdAt,value
2017-11-04T00:01:37.313Z,39.30
2017-11-04T00:04:04.721Z,39.17
2017-11-04T00:06:32.106Z,37.20
2017-11-04T00:08:59.494Z,35.07
2017-11-04T00:11:26.898Z,33.10
2017-11-04T00:13:54.286Z,34.73
2017-11-04T00:16:21.674Z,34.83
2017-11-04T00:18:49.080Z,34.77
2017-11-04T00:21:16.466Z,33.93
2017-11-04T00:23:43.859Z,34.53
2017-11-04T00:26:11.265Z,32.80
2017-11-04T00:28:38.650Z,33.93
2017-11-04T00:31:06.034Z,35.17
2017-11-04T00:33:33.442Z,36.40
2017-11-04T00:36:00.825Z,34.80
2017-11-04T00:38:28.215Z,35.23
2017-11-04T00:40:55.622Z,36.17
2017-11-04T00:43:23.011Z,33.63
2017-11-04T00:45:50.398Z,34.40
2017-11-04T00:48:17.801Z,34.30
2017-11-04T00:50:45.195Z,33.20
2017-11-04T00:53:12.583Z,32.40
2017-11-04T00:55:39.988Z,34.03
2017-11-04T00:58:07.376Z,34.10
2017-11-04T01:00:34.764Z,33.70
2017-11-04T01:03:02.178Z,33.27
2017-11-04T01:05:29.574Z,35.07
2017-11-04T01:07:56.962Z,36.60
2017-11-04T01:10:24.365Z,34.60
2017-11-04T01:12:51.754Z,34.80
2017-11-04T01:15:19.139Z,34.13
2017-11-04T01:17:46.541Z,36.37
2017-11-04T01:20:13.933Z,35.67
2017-11-04T01:22:41.322Z,32.97
2017-11-04T01:25:08.722Z,36.97
2017-11-04T01:27:36.109Z,34.23
2017-11-04T01:30:03.501Z,37.83
2017-11-04T01:32:30.898Z,33.57
2017-11-04T01:34:58.286Z,35.60
2017-11-04T01:37:25.683Z,35.00
2017-11-04T01:39:53.087Z,34.57
2017-11-04T01:42:20.470Z,35.53
2017-11-04T01:44:47.854Z,36.07
2017-11-04T01:47:15.299Z,36.33
2017-11-04T01:49:42.666Z,36.33
2017-11-04T01:52:10.064Z,38.57
2017-11-04T01:54:37.460Z,40.17
2017-11-04T01:57:04.846Z,39.40
2017-11-04T01:59:32.234Z,41.67
2017-11-04T02:01:59.638Z,35.67
2017-11-04T02:04:27.033Z,42.97
2017-11-04T02:06:54.410Z,40.73
2017-11-04T02:09:21.818Z,39.57
2017-11-04T02:11:49.215Z,37.93
2017-11-04T02:14:16.600Z,38.37
2017-11-04T02:16:44.001Z,39.90
2017-11-04T02:19:11.382Z,41.13
2017-11-04T02:21:38.765Z,42.90
2017-11-04T02:24:06.170Z,43.00
2017-11-04T02:26:33.563Z,46.23
2017-11-04T02:29:00.942Z,42.13
2017-11-04T02:31:28.357Z,39.70
2017-11-04T02:33:55.721Z,42.50
2017-11-04T02:36:23.112Z,40.70
2017-11-04T02:38:50.511Z,40.83
2017-11-04T02:41:17.895Z,44.60
2017-11-04T02:43:45.277Z,43.43
2017-11-04T02:46:12.686Z,42.57
2017-11-04T02:48:40.070Z,42.90
2017-11-04T02:51:07.455Z,43.87
2017-11-04T02:53:34.851Z,43.43
2017-11-04T02:56:02.236Z,41.20
2017-11-04T02:58:29.616Z,43.13
2017-11-04T03:00:57.015Z,47.23
2017-11-04T03:03:24.401Z,44.37
2017-11-04T03:05:51.786Z,40.63
2017-11-04T03:08:19.189Z,44.03
2017-11-04T03:10:46.578Z,43.23
2017-11-04T03:13:13.962Z,45.80
2017-11-04T03:15:41.357Z,41.40
2017-11-04T03:18:08.735Z,43.10
2017-11-04T03:20:36.121Z,42.47
2017-11-04T03:23:03.533Z,46.23
2017-11-04T03:25:30.915Z,41.47
2017-11-04T03:27:58.297Z,39.63
2017-11-04T03:30:25.699Z,43.60
2017-11-04T03:32:53.083Z,39.10
2017-11-04T03:35:20.466Z,39.70
2017-11-04T03:37:47.866Z,38.13
2017-11-04T03:40:15.246Z,41.50
2017-11-04T03:42:42.627Z,36.87
2017-11-04T03:45:10.033Z,36.83
2017-11-04T03:47:37.425Z,41.73
2017-11-04T03:50:04.804Z,38.63
2017-11-04T03:52:32.206Z,36.97
2017-11-04T03:54:59.609Z,38.10
2017-11-04T03:57:26.971Z,38.47
2017-11-04T03:59:54.366Z,37.50
2017-11-04T04:02:21.750Z,39.87
2017-11-04T04:04:49.134Z,39.43
2017-11-04T04:07:16.530Z,39.13
2017-11-04T04:09:43.913Z,43.73
2017-11-04T04:12:11.295Z,39.53
2017-11-04T04:14:38.698Z,42.63
2017-11-04T04:17:06.078Z,37.93
2017-11-04T04:19:33.462Z,44.90
2017-11-04T04:22:00.869Z,39.33
2017-11-04T04:24:28.246Z,42.47
2017-11-04T04:26:55.631Z,45.43
2017-11-04T04:29:23.030Z,44.23
2017-11-04T04:31:50.415Z,48.90
2017-11-04T04:34:17.802Z,46.90
2017-11-04T04:36:45.211Z,40.90
2017-11-04T04:39:12.602Z,47.77
2017-11-04T04:41:39.986Z,48.60
2017-11-04T04:44:07.386Z,49.33
2017-11-04T04:46:34.770Z,43.40
2017-11-04T04:49:02.154Z,46.77
2017-11-04T04:51:29.554Z,44.23
2017-11-04T04:53:56.943Z,51.13
2017-11-04T04:56:24.327Z,50.27
2017-11-04T04:58:52.530Z,49.70
2017-11-04T05:01:19.910Z,46.27
2017-11-04T05:03:47.297Z,54.30
2017-11-04T05:06:14.694Z,45.47
2017-11-04T05:08:42.073Z,47.70
2017-11-04T05:11:09.458Z,48.90
2017-11-04T05:13:36.859Z,46.33
2017-11-04T05:16:04.247Z,51.87
2017-11-04T05:18:31.638Z,50.17
2017-11-04T05:20:59.059Z,47.40
2017-11-04T05:23:26.438Z,49.43
2017-11-04T05:25:53.821Z,50.83
2017-11-04T05:28:21.223Z,49.53
2017-11-04T05:30:48.606Z,52.20
2017-11-04T05:33:15.994Z,48.43
2017-11-04T05:35:43.389Z,48.97
2017-11-04T05:38:10.773Z,49.10
2017-11-04T05:40:38.166Z,48.90
2017-11-04T05:43:05.570Z,46.80
2017-11-04T05:45:32.956Z,46.20
2017-11-04T05:48:00.337Z,46.47
2017-11-04T05:50:27.737Z,47.83
2017-11-04T05:52:55.123Z,49.00
2017-11-04T05:55:22.517Z,50.87
2017-11-04T05:57:49.909Z,48.40
2017-11-04T06:00:17.293Z,53.33
2017-11-04T06:02:44.678Z,47.23
2017-11-04T06:05:12.083Z,51.13
2017-11-04T06:07:39.469Z,46.33
2017-11-04T06:10:06.851Z,50.57
2017-11-04T06:12:34.274Z,44.73
2017-11-04T06:15:01.661Z,43.00
2017-11-04T06:17:29.044Z,51.17
2017-11-04T06:19:56.437Z,48.47
2017-11-04T06:22:23.820Z,41.20
2017-11-04T06:24:51.202Z,52.63
2017-11-04T06:27:18.706Z,48.60
2017-11-04T06:29:46.094Z,43.77
2017-11-04T06:32:13.477Z,44.80
2017-11-04T06:34:40.878Z,48.73
2017-11-04T06:37:08.265Z,47.10
2017-11-04T06:39:35.650Z,50.37
2017-11-04T06:42:03.052Z,51.07
2017-11-04T06:44:30.436Z,50.27
2017-11-04T06:46:57.822Z,47.23
2017-11-04T06:49:25.230Z,49.03
2017-11-04T06:51:52.609Z,43.03
2017-11-04T06:54:19.997Z,54.33
2017-11-04T06:56:47.397Z,48.27
2017-11-04T06:59:14.787Z,47.40
2017-11-04T07:01:42.166Z,43.37
2017-11-04T07:04:09.579Z,49.03
2017-11-04T07:06:36.966Z,46.83
2017-11-04T07:09:04.353Z,46.83
2017-11-04T07:11:31.750Z,45.80
2017-11-04T07:13:59.135Z,46.37
2017-11-04T07:16:26.521Z,39.90
2017-11-04T07:18:53.918Z,48.17
2017-11-04T07:21:21.306Z,45.07
2017-11-04T07:23:48.693Z,46.50
2017-11-04T07:26:16.090Z,44.43
2017-11-04T07:28:43.474Z,45.03
2017-11-04T07:31:10.862Z,48.33
2017-11-04T07:33:38.257Z,44.60
2017-11-04T07:36:05.641Z,44.10
2017-11-04T07:38:33.033Z,44.30
2017-11-04T07:41:00.414Z,48.97
2017-11-04T07:43:27.793Z,47.73
2017-11-04T07:45:55.188Z,48.27
2017-11-04T07:48:22.581Z,48.53
2017-11-04T07:50:49.977Z,43.73
2017-11-04T07:53:17.355Z,46.67
2017-11-04T07:55:44.862Z,51.40
2017-11-04T07:58:12.250Z,53.00
2017-11-04T08:00:39.638Z,50.00
2017-11-04T08:03:07.035Z,52.13
2017-11-04T08:05:34.422Z,58.90
2017-11-04T08:08:01.805Z,61.33
2017-11-04T08:10:29.213Z,57.80
2017-11-04T08:12:56.589Z,62.67
2017-11-04T08:15:23.985Z,60.40
2017-11-04T08:17:51.387Z,54.37
2017-11-04T08:20:18.774Z,53.23
2017-11-04T08:22:46.162Z,57.70
2017-11-04T08:25:13.564Z,55.57
2017-11-04T08:27:40.949Z,51.20
2017-11-04T08:30:08.341Z,56.30
2017-11-04T08:32:35.750Z,57.33
2017-11-04T08:35:03.141Z,59.53
2017-11-04T08:37:30.538Z,54.67
2017-11-04T08:39:57.942Z,55.10
2017-11-04T08:42:25.335Z,56.27
2017-11-04T08:44:52.726Z,53.10
2017-11-04T08:47:20.123Z,53.27
2017-11-04T08:49:47.515Z,53.47
2017-11-04T08:52:14.907Z,52.97
2017-11-04T08:54:42.314Z,49.83
2017-11-04T08:57:09.698Z,52.70
2017-11-04T08:59:37.091Z,47.27
2017-11-04T09:02:04.519Z,47.00
2017-11-04T09:04:31.908Z,43.60
2017-11-04T09:06:59.294Z,47.90
2017-11-04T09:09:26.693Z,48.70
2017-11-04T09:11:54.081Z,44.37
2017-11-04T09:14:21.498Z,44.00
2017-11-04T09:16:48.898Z,45.77
2017-11-04T09:19:16.295Z,44.77
2017-11-04T09:21:43.688Z,41.03
2017-11-04T09:24:11.086Z,43.90
2017-11-04T09:26:38.478Z,40.77
2017-11-04T09:29:05.863Z,38.90
2017-11-04T09:31:33.319Z,40.93
2017-11-04T09:34:00.714Z,41.47
2017-11-04T09:36:28.102Z,43.07
2017-11-04T09:38:55.503Z,37.50
2017-11-04T09:41:22.904Z,37.33
2017-11-04T09:43:50.286Z,40.50
2017-11-04T09:46:17.690Z,36.93
2017-11-04T09:48:45.087Z,38.90
2017-11-04T09:51:12.470Z,35.37
2017-11-04T09:53:39.875Z,37.70
2017-11-04T09:56:07.271Z,36.73
2017-11-04T09:58:34.671Z,35.50
2017-11-04T10:01:02.071Z,37.20
2017-11-04T10:03:29.458Z,35.63
2017-11-04T10:05:56.921Z,33.73
2017-11-04T10:08:24.317Z,36.23
2017-11-04T10:10:51.716Z,39.93
2017-11-04T10:13:19.098Z,36.30
2017-11-04T10:15:46.508Z,36.10
2017-11-04T10:18:13.901Z,36.60
2017-11-04T10:20:41.282Z,38.13
2017-11-04T10:23:08.793Z,34.67
2017-11-04T10:25:36.187Z,37.60
2017-11-04T10:28:03.599Z,35.20
2017-11-04T10:30:31.098Z,34.03
2017-11-04T10:32:58.483Z,39.07
2017-11-04T10:35:25.884Z,35.23
2017-11-04T10:37:53.283Z,33.00
2017-11-04T10:40:20.679Z,33.10
2017-11-04T10:42:48.114Z,39.53
2017-11-04T10:45:16.811Z,31.90
2017-11-04T10:47:44.314Z,36.10
2017-11-04T10:50:11.690Z,34.50
2017-11-04T10:52:39.181Z,39.10
2017-11-04T10:55:06.554Z,34.97
2017-11-04T10:57:33.962Z,38.70
2017-11-04T11:00:01.431Z,36.57
2017-11-04T11:02:28.816Z,37.30
2017-11-04T11:04:56.255Z,37.40
2017-11-04T11:07:23.679Z,36.03
2017-11-04T11:09:51.069Z,33.33
2017-11-04T11:12:18.461Z,34.37
2017-11-04T11:14:45.877Z,37.50
2017-11-04T11:17:13.269Z,35.70
2017-11-04T11:19:40.659Z,33.63
2017-11-04T11:22:08.075Z,32.87
2017-11-04T11:24:35.484Z,33.43
2017-11-04T11:27:02.854Z,32.13
2017-11-04T11:29:30.255Z,31.60
2017-11-04T11:31:57.646Z,34.97
2017-11-04T11:34:25.098Z,30.73
2017-11-04T11:36:52.486Z,33.00
2017-11-04T11:39:19.933Z,31.73
2017-11-04T11:41:47.310Z,29.53
2017-11-04T11:44:14.715Z,30.00
2017-11-04T11:46:42.141Z,28.07
2017-11-04T11:49:09.542Z,28.17
2017-11-04T11:51:36.946Z,27.97
2017-11-04T11:54:04.338Z,26.40
2017-11-04T11:56:31.727Z,29.60
2017-11-04T11:58:59.142Z,27.70
2017-11-04T12:01:26.530Z,27.80
2017-11-04T12:03:53.937Z,25.07
2017-11-04T12:06:21.441Z,26.03
2017-11-04T12:08:48.835Z,26.30
2017-11-04T12:11:16.225Z,29.43
2017-11-04T12:13:43.621Z,28.07
2017-11-04T12:16:11.010Z,26.73
2017-11-04T12:18:38.404Z,26.33
2017-11-04T12:21:05.806Z,26.70
2017-11-04T12:23:33.197Z,27.13
2017-11-04T12:26:00.594Z,25.47
2017-11-04T12:28:27.998Z,30.80
2017-11-04T12:30:55.387Z,24.83
2017-11-04T12:33:22.774Z,24.50
2017-11-04T12:35:50.185Z,24.00
2017-11-04T12:38:17.582Z,24.43
2017-11-04T12:40:44.976Z,25.63
2017-11-04T12:43:16.307Z,24.33
2017-11-04T12:45:50.988Z,25.10
2017-11-04T12:48:18.434Z,26.00
2017-11-04T12:50:45.849Z,25.60
2017-11-04T12:53:13.238Z,24.20
2017-11-04T12:55:40.751Z,24.60
2017-11-04T12:58:08.138Z,25.50
2017-11-04T13:00:35.542Z,24.83
2017-11-04T13:03:02.954Z,26.03
2017-11-04T13:05:30.342Z,24.33
2017-11-04T13:07:57.740Z,28.53
2017-11-04T13:10:25.163Z,23.10
2017-11-04T13:12:52.564Z,23.57
2017-11-04T13:15:19.953Z,22.70
2017-11-04T13:17:47.375Z,24.63
2017-11-04T13:20:14.766Z,24.10
2017-11-04T13:22:42.153Z,23.53
2017-11-04T13:25:09.611Z,24.00
2017-11-04T13:27:37.000Z,23.13
2017-11-04T13:30:04.381Z,21.80
2017-11-04T13:32:31.806Z,22.30
2017-11-04T13:34:59.188Z,21.30
2017-11-04T13:37:26.581Z,21.43
2017-11-04T13:39:53.978Z,24.03
2017-11-04T13:42:21.362Z,20.00
2017-11-04T13:44:48.756Z,21.80
2017-11-04T13:47:16.158Z,21.40
2017-11-04T13:49:43.553Z,21.93
2017-11-04T13:52:10.951Z,19.87
2017-11-04T13:54:38.354Z,19.90
2017-11-04T13:57:05.744Z,20.27
2017-11-04T13:59:33.133Z,19.70
2017-11-04T14:02:00.539Z,19.80
2017-11-04T14:04:27.938Z,19.10
2017-11-04T14:06:55.326Z,21.67
2017-11-04T14:09:22.739Z,19.30
2017-11-04T14:11:54.006Z,19.03
2017-11-04T14:14:21.406Z,18.07
2017-11-04T14:16:48.803Z,18.33
2017-11-04T14:19:16.191Z,17.37
2017-11-04T14:21:43.583Z,16.73
2017-11-04T14:24:10.983Z,18.13
2017-11-04T14:26:38.370Z,17.07
2017-11-04T14:29:05.768Z,16.60
2017-11-04T14:31:33.162Z,17.57
2017-11-04T14:34:00.549Z,16.97
2017-11-04T14:36:27.946Z,16.20
2017-11-04T14:38:55.343Z,18.13
2017-11-04T14:41:22.730Z,16.90
2017-11-04T14:43:50.118Z,15.80
2017-11-04T14:46:17.541Z,17.00
2017-11-04T14:48:44.918Z,16.33
2017-11-04T14:51:12.308Z,15.70
2017-11-04T14:53:39.714Z,15.03
2017-11-04T14:56:07.151Z,15.80
2017-11-04T14:58:34.615Z,16.10
2017-11-04T15:01:03.014Z,16.00
2017-11-04T15:03:30.406Z,15.93
2017-11-04T15:05:57.794Z,15.10
2017-11-04T15:08:25.225Z,15.57
2017-11-04T15:10:52.615Z,15.07
2017-11-04T15:13:20.003Z,16.10
2017-11-04T15:15:47.413Z,15.20
2017-11-04T15:18:14.806Z,15.47
2017-11-04T15:20:42.189Z,15.90
2017-11-04T15:23:09.589Z,15.33
2017-11-04T15:25:36.978Z,15.13
2017-11-04T15:28:04.403Z,14.47
2017-11-04T15:30:31.790Z,14.60
2017-11-04T15:32:59.222Z,15.57
2017-11-04T15:35:26.632Z,15.47
2017-11-04T15:37:54.034Z,15.50
2017-11-04T15:40:21.435Z,15.00
2017-11-04T15:42:48.808Z,16.20
2017-11-04T15:45:16.207Z,15.50
2017-11-04T15:47:43.623Z,15.53
2017-11-04T15:50:11.003Z,14.80
2017-11-04T15:52:38.398Z,15.87
2017-11-04T15:55:05.786Z,14.60
2017-11-04T15:57:33.191Z,15.30
2017-11-04T16:00:00.595Z,15.87
2017-11-04T16:02:27.986Z,14.80
2017-11-04T16:04:55.378Z,16.13
2017-11-04T16:07:22.806Z,16.27
2017-11-04T16:09:50.189Z,15.83
2017-11-04T16:12:17.578Z,16.17
2017-11-04T16:14:44.993Z,16.07
2017-11-04T16:17:12.382Z,16.53
2017-11-04T16:19:39.773Z,15.47
2017-11-04T16:22:07.185Z,16.80
2017-11-04T16:24:34.573Z,16.27
2017-11-04T16:27:01.959Z,17.23
2017-11-04T16:29:30.306Z,17.73
2017-11-04T16:31:57.694Z,17.80
2017-11-04T16:34:25.086Z,16.17
2017-11-04T16:36:52.860Z,17.50
2017-11-04T16:39:20.246Z,18.23
2017-11-04T16:41:47.634Z,17.30
2017-11-04T16:44:15.043Z,18.33
2017-11-04T16:46:43.010Z,17.97
2017-11-04T16:49:10.478Z,17.77
2017-11-04T16:51:37.918Z,18.63
2017-11-04T16:54:05.295Z,17.80
2017-11-04T16:56:32.682Z,17.90
2017-11-04T16:59:00.092Z,17.57
2017-11-04T17:01:27.482Z,18.00
2017-11-04T17:03:55.494Z,17.10
2017-11-04T17:06:25.420Z,17.90
2017-11-04T17:08:52.795Z,17.93
2017-11-04T17:11:20.236Z,17.33
2017-11-04T17:13:48.362Z,17.30
2017-11-04T17:16:15.746Z,17.93
2017-11-04T17:18:43.133Z,20.20
2017-11-04T17:21:10.599Z,19.40
2017-11-04T17:23:37.991Z,29.00
2017-11-04T17:26:05.382Z,22.23
2017-11-04T17:28:32.790Z,20.23
2017-11-04T17:31:00.211Z,18.83
2017-11-04T17:33:27.619Z,19.47
2017-11-04T17:35:55.130Z,24.93
2017-11-04T17:38:22.575Z,22.63
2017-11-04T17:40:50.027Z,24.47
2017-11-04T17:43:17.497Z,23.17
2017-11-04T17:45:44.942Z,21.47
2017-11-04T17:48:12.344Z,26.47
2017-11-04T17:50:39.755Z,30.77
2017-11-04T17:53:07.151Z,52.10
2017-11-04T17:55:34.571Z,29.23
2017-11-04T17:58:01.967Z,43.37
2017-11-04T18:00:29.378Z,27.03
2017-11-04T18:02:56.770Z,27.50
2017-11-04T18:05:24.170Z,32.80
2017-11-04T18:07:51.650Z,24.47
2017-11-04T18:10:19.067Z,25.10
2017-11-04T18:12:46.449Z,27.13
2017-11-04T18:15:13.842Z,23.60
2017-11-04T18:17:43.352Z,22.70
2017-11-04T18:20:10.738Z,24.30
2017-11-04T18:22:38.135Z,29.30
2017-11-04T18:25:05.518Z,37.60
2017-11-04T18:27:32.941Z,48.27
2017-11-04T18:30:00.330Z,34.30
2017-11-04T18:32:27.725Z,37.27
2017-11-04T18:34:55.234Z,26.73
2017-11-04T18:37:22.618Z,24.73
2017-11-04T18:39:50.010Z,23.37
2017-11-04T18:42:17.410Z,66.43
2017-11-04T18:44:44.801Z,26.10
2017-11-04T18:47:12.194Z,64.27
2017-11-04T18:49:39.594Z,46.17
2017-11-04T18:52:07.078Z,44.20
2017-11-04T18:54:34.467Z,45.53
2017-11-04T18:57:01.879Z,38.40
2017-11-04T18:59:29.262Z,24.63
2017-11-04T19:01:56.649Z,29.57
2017-11-04T19:04:24.054Z,23.30
2017-11-04T19:06:51.451Z,21.37
2017-11-04T19:09:18.831Z,20.23
2017-11-04T19:11:46.240Z,19.80
2017-11-04T19:14:14.653Z,20.10
2017-11-04T19:16:42.039Z,20.80
2017-11-04T19:19:09.438Z,19.10
2017-11-04T19:21:36.834Z,20.83
2017-11-04T19:24:04.226Z,18.53
2017-11-04T19:26:31.755Z,20.13
2017-11-04T19:28:59.144Z,18.70
2017-11-04T19:31:26.530Z,20.27
2017-11-04T19:33:53.929Z,17.70
2017-11-04T19:36:21.319Z,18.43
2017-11-04T19:38:48.740Z,17.80
2017-11-04T19:41:16.126Z,17.83
2017-11-04T19:43:43.516Z,17.47
2017-11-04T19:46:10.897Z,16.87
2017-11-04T19:48:38.304Z,17.20
2017-11-04T19:51:05.691Z,17.97
2017-11-04T19:53:33.082Z,16.90
2017-11-04T19:56:02.113Z,16.60
2017-11-04T19:58:29.698Z,16.10
2017-11-04T20:00:57.146Z,16.47
2017-11-04T20:03:24.554Z,17.10
2017-11-04T20:05:51.952Z,17.13
2017-11-04T20:08:19.341Z,16.47
2017-11-04T20:10:46.745Z,16.00
2017-11-04T20:13:15.133Z,17.20
2017-11-04T20:15:42.586Z,16.43
2017-11-04T20:18:09.990Z,16.77
2017-11-04T20:20:37.378Z,16.53
2017-11-04T20:23:04.777Z,18.43
2017-11-04T20:25:34.098Z,17.00
2017-11-04T20:28:02.379Z,18.50
2017-11-04T20:30:29.774Z,18.20
2017-11-04T20:32:57.198Z,17.33
2017-11-04T20:35:24.916Z,18.50
2017-11-04T20:37:52.313Z,17.03
2017-11-04T20:40:19.726Z,17.23
2017-11-04T20:42:47.102Z,16.73
2017-11-04T20:45:14.490Z,16.20
2017-11-04T20:47:41.902Z,16.33
2017-11-04T20:50:09.298Z,16.23
2017-11-04T20:52:36.754Z,15.50
2017-11-04T20:55:04.158Z,15.57
2017-11-04T20:57:31.553Z,15.73
2017-11-04T20:59:58.942Z,14.70
2017-11-04T21:02:26.362Z,15.70
2017-11-04T21:04:53.753Z,15.13
2017-11-04T21:07:21.370Z,17.63
2017-11-04T21:09:48.782Z,15.60
2017-11-04T21:12:16.178Z,15.17
2017-11-04T21:14:43.576Z,16.10
2017-11-04T21:17:10.966Z,15.80
2017-11-04T21:19:38.354Z,17.37
2017-11-04T21:22:05.746Z,17.27
2017-11-04T21:24:33.158Z,16.03
2017-11-04T21:27:00.542Z,16.70
2017-11-04T21:29:27.930Z,15.97
2017-11-04T21:31:56.170Z,16.40
2017-11-04T21:34:23.554Z,14.80
2017-11-04T21:36:50.951Z,16.30
2017-11-04T21:39:18.350Z,16.30
2017-11-04T21:41:45.750Z,16.60
2017-11-04T21:44:13.134Z,17.33
2017-11-04T21:46:40.535Z,15.93
2017-11-04T21:49:07.929Z,16.10
2017-11-04T21:51:35.319Z,16.40
2017-11-04T21:54:02.727Z,16.77
2017-11-04T21:56:30.114Z,16.77
2017-11-04T21:58:57.502Z,16.90
2017-11-04T22:01:24.913Z,17.50
2017-11-04T22:03:52.293Z,17.50
2017-11-04T22:06:19.682Z,17.77
2017-11-04T22:08:47.086Z,17.80
2017-11-04T22:11:14.470Z,17.03
2017-11-04T22:13:41.862Z,16.50
2017-11-04T22:16:09.270Z,16.77
2017-11-04T22:18:36.654Z,17.10
2017-11-04T22:21:04.041Z,16.63
2017-11-04T22:23:31.442Z,18.17
2017-11-04T22:25:58.831Z,17.53
2017-11-04T22:28:26.300Z,17.23
2017-11-04T22:30:53.697Z,18.00
2017-11-04T22:33:21.078Z,17.23
2017-11-04T22:35:48.477Z,17.33
2017-11-04T22:38:15.899Z,18.20
2017-11-04T22:40:43.299Z,18.53
2017-11-04T22:43:10.674Z,17.73
2017-11-04T22:45:38.085Z,17.70
2017-11-04T22:48:05.478Z,18.13
2017-11-04T22:50:32.865Z,18.77
2017-11-04T22:53:00.270Z,18.27
2017-11-04T22:55:27.657Z,18.67
2017-11-04T22:57:55.047Z,19.20
2017-11-04T23:00:22.462Z,18.87
2017-11-04T23:02:49.850Z,18.70
2017-11-04T23:05:17.242Z,18.93
2017-11-04T23:07:44.642Z,17.77
2017-11-04T23:10:12.040Z,17.00
2017-11-04T23:12:39.426Z,17.10
2017-11-04T23:15:06.819Z,16.13
2017-11-04T23:17:34.216Z,17.47
2017-11-04T23:20:01.602Z,17.30
2017-11-04T23:22:29.014Z,18.30
2017-11-04T23:24:56.401Z,18.63
2017-11-04T23:27:23.798Z,18.53
2017-11-04T23:29:51.202Z,18.07
2017-11-04T23:32:18.591Z,18.23
2017-11-04T23:34:45.982Z,18.73
2017-11-04T23:37:13.397Z,18.80
2017-11-04T23:39:40.781Z,18.23
2017-11-04T23:42:08.174Z,18.33
2017-11-04T23:44:35.590Z,18.00
2017-11-04T23:47:02.989Z,18.30
2017-11-04T23:49:30.367Z,17.57
2017-11-04T23:51:57.770Z,18.80
2017-11-04T23:54:25.166Z,19.10
2017-11-04T23:56:52.561Z,18.07
2017-11-04T23:59:19.959Z,18.13
